createdAt,value
2018-12-20T00:00:09.805Z,98564.36
2018-12-20T00:02:40.943Z,98563.80
2018-12-20T00:05:10.945Z,98563.73
2018-12-20T00:07:40.835Z,98571.56
2018-12-20T00:10:10.808Z,98572.93
2018-12-20T00:12:40.697Z,98571.24
2018-12-20T00:15:10.758Z,98584.78
2018-12-20T00:17:46.196Z,98587.83
2018-12-20T00:20:16.164Z,98581.77
2018-12-20T00:22:46.292Z,98582.13
2018-12-20T00:25:16.400Z,98576.39
2018-12-20T00:27:46.229Z,98579.04
2018-12-20T00:30:16.177Z,98582.80
2018-12-20T00:32:46.149Z,98576.17
2018-12-20T00:35:17.201Z,98565.95
2018-12-20T00:37:48.241Z,98578.86
2018-12-20T00:40:18.281Z,98581.32
2018-12-20T00:42:48.107Z,98574.15
2018-12-20T00:45:17.859Z,98587.47
2018-12-20T00:47:47.740Z,98581.84
2018-12-20T00:50:17.694Z,98571.31
2018-12-20T00:52:47.543Z,98585.99
2018-12-20T00:55:22.025Z,98588.91
2018-12-20T00:57:52.039Z,98589.01
2018-12-20T01:00:22.066Z,98591.55
2018-12-20T01:02:55.220Z,98594.97
2018-12-20T01:05:23.857Z,98596.33
2018-12-20T01:07:53.782Z,98600.67
2018-12-20T01:10:23.764Z,98594.82
2018-12-20T01:12:53.573Z,98593.98
2018-12-20T01:15:23.497Z,98599.64
2018-12-20T01:17:53.337Z,98593.50
2018-12-20T01:20:23.312Z,98598.42
2018-12-20T01:22:53.155Z,98604.28
2018-12-20T01:25:24.023Z,98609.31
2018-12-20T01:27:54.052Z,98604.31
2018-12-20T01:30:24.022Z,98612.44
2018-12-20T01:32:54.045Z,98613.33
2018-12-20T01:35:23.990Z,98616.56
2018-12-20T01:37:54.095Z,98622.44
2018-12-20T01:40:24.310Z,98627.00
2018-12-20T01:42:54.321Z,98618.78
2018-12-20T01:45:24.263Z,98623.90
2018-12-20T01:47:54.070Z,98627.82
2018-12-20T01:50:23.871Z,98622.62
2018-12-20T01:52:53.987Z,98625.92
2018-12-20T01:55:24.146Z,98621.87
2018-12-20T01:57:54.048Z,98621.87
2018-12-20T02:00:24.149Z,98619.98
2018-12-20T02:02:54.373Z,98618.55
2018-12-20T02:05:24.319Z,98616.94
2018-12-20T02:07:54.127Z,98626.02
2018-12-20T02:10:23.967Z,98633.82
2018-12-20T02:12:53.894Z,98635.25
2018-12-20T02:15:23.800Z,98629.66
2018-12-20T02:17:53.988Z,98631.73
2018-12-20T02:20:24.080Z,98630.36
2018-12-20T02:22:54.020Z,98626.55
2018-12-20T02:25:23.981Z,98632.30
2018-12-20T02:27:54.165Z,98635.43
2018-12-20T02:30:23.989Z,98630.80
2018-12-20T02:32:54.039Z,98623.88
2018-12-20T02:35:24.332Z,98625.02
2018-12-20T02:37:54.299Z,98624.46
2018-12-20T02:40:24.493Z,98621.98
2018-12-20T02:42:54.606Z,98615.94
2018-12-20T02:45:24.521Z,98624.29
2018-12-20T02:47:54.618Z,98620.52
2018-12-20T02:50:29.870Z,98622.14
2018-12-20T02:53:00.867Z,98628.31
2018-12-20T02:55:31.004Z,98631.17
2018-12-20T02:58:01.030Z,98627.93
2018-12-20T03:00:30.985Z,98628.05
2018-12-20T03:03:00.959Z,98633.05
2018-12-20T03:05:30.884Z,98630.03
2018-12-20T03:08:00.888Z,98634.50
2018-12-20T03:10:30.831Z,98631.00
2018-12-20T03:13:00.728Z,98631.36
2018-12-20T03:15:30.889Z,98627.37
2018-12-20T03:18:01.030Z,98625.69
2018-12-20T03:20:31.065Z,98630.59
2018-12-20T03:23:01.268Z,98624.92
2018-12-20T03:25:31.451Z,98625.67
2018-12-20T03:28:01.528Z,98621.12
2018-12-20T03:30:31.345Z,98631.73
2018-12-20T03:33:01.343Z,98627.75
2018-12-20T03:35:31.338Z,98631.91
2018-12-20T03:38:01.257Z,98634.77
2018-12-20T03:40:31.210Z,98639.99
2018-12-20T03:43:01.376Z,98648.22
2018-12-20T03:45:31.662Z,98644.81
2018-12-20T03:48:01.960Z,98642.80
2018-12-20T03:50:32.259Z,98644.05
2018-12-20T03:53:02.224Z,98653.35
2018-12-20T03:55:32.731Z,98656.77
2018-12-20T03:58:02.931Z,98652.20
2018-12-20T04:00:33.841Z,98659.98
2018-12-20T04:03:03.927Z,98667.36
2018-12-20T04:05:34.773Z,98663.75
2018-12-20T04:08:04.902Z,98662.54
2018-12-20T04:10:34.774Z,98661.84
2018-12-20T04:13:04.824Z,98656.73
2018-12-20T04:15:37.922Z,98659.00
2018-12-20T04:18:06.957Z,98653.19
2018-12-20T04:20:36.937Z,98655.47
2018-12-20T04:23:06.820Z,98657.33
2018-12-20T04:25:36.705Z,98657.41
2018-12-20T04:28:06.760Z,98664.11
2018-12-20T04:30:36.615Z,98668.86
2018-12-20T04:33:06.527Z,98664.41
2018-12-20T04:35:36.782Z,98676.73
2018-12-20T04:38:06.604Z,98673.69
2018-12-20T04:40:36.552Z,98680.97
2018-12-20T04:43:06.470Z,98679.57
2018-12-20T04:45:36.499Z,98686.27
2018-12-20T04:48:07.226Z,98683.92
2018-12-20T04:50:37.140Z,98685.02
2018-12-20T04:53:06.952Z,98690.06
2018-12-20T04:55:36.930Z,98685.16
2018-12-20T04:58:08.251Z,98689.73
2018-12-20T05:00:40.462Z,98693.77
2018-12-20T05:03:10.130Z,98694.06
2018-12-20T05:05:40.036Z,98696.41
2018-12-20T05:08:10.456Z,98705.81
2018-12-20T05:10:40.605Z,98698.09
2018-12-20T05:13:11.162Z,98705.33
2018-12-20T05:15:41.069Z,98706.77
2018-12-20T05:18:11.076Z,98713.38
2018-12-20T05:20:40.924Z,98714.85
2018-12-20T05:23:11.432Z,98717.42
2018-12-20T05:25:41.604Z,98719.83
2018-12-20T05:28:12.112Z,98718.33
2018-12-20T05:30:42.062Z,98722.83
2018-12-20T05:33:12.860Z,98719.58
2018-12-20T05:35:42.966Z,98720.73
2018-12-20T05:38:13.000Z,98724.59
2018-12-20T05:40:43.058Z,98724.77
2018-12-20T05:43:13.038Z,98725.79
2018-12-20T05:45:43.564Z,98730.41
2018-12-20T05:48:13.692Z,98724.77
2018-12-20T05:50:43.684Z,98732.55
2018-12-20T05:53:13.523Z,98738.50
2018-12-20T05:55:43.918Z,98744.02
2018-12-20T05:58:13.825Z,98743.25
2018-12-20T06:00:43.911Z,98742.23
2018-12-20T06:03:14.372Z,98748.00
2018-12-20T06:05:44.566Z,98752.94
2018-12-20T06:08:14.441Z,98752.13
2018-12-20T06:10:44.352Z,98752.57
2018-12-20T06:13:14.157Z,98755.98
2018-12-20T06:15:44.847Z,98761.00
2018-12-20T06:18:14.892Z,98758.00
2018-12-20T06:20:44.961Z,98764.93
2018-12-20T06:23:14.828Z,98759.58
2018-12-20T06:25:45.291Z,98755.58
2018-12-20T06:28:15.207Z,98759.56
2018-12-20T06:30:45.027Z,98757.80
2018-12-20T06:33:14.816Z,98766.83
2018-12-20T06:35:44.649Z,98763.59
2018-12-20T06:38:14.452Z,98764.38
2018-12-20T06:40:44.325Z,98768.53
2018-12-20T06:43:14.189Z,98775.31
2018-12-20T06:45:44.094Z,98773.98
2018-12-20T06:48:13.960Z,98771.33
2018-12-20T06:50:43.845Z,98774.22
2018-12-20T06:53:13.733Z,98765.55
2018-12-20T06:55:43.572Z,98773.89
2018-12-20T06:58:14.057Z,98771.50
2018-12-20T07:00:43.996Z,98772.06
2018-12-20T07:03:13.917Z,98765.27
2018-12-20T07:05:44.357Z,98761.76
2018-12-20T07:08:14.239Z,98762.19
2018-12-20T07:10:45.295Z,98768.55
2018-12-20T07:13:15.096Z,98769.02
2018-12-20T07:15:44.944Z,98770.55
2018-12-20T07:18:14.824Z,98766.22
2018-12-20T07:20:45.103Z,98769.81
2018-12-20T07:23:14.964Z,98774.72
2018-12-20T07:25:44.781Z,98772.64
2018-12-20T07:28:14.587Z,98774.53
2018-12-20T07:30:44.413Z,98774.91
2018-12-20T07:33:14.211Z,98773.84
2018-12-20T07:35:44.096Z,98774.91
2018-12-20T07:38:13.909Z,98773.67
2018-12-20T07:40:44.016Z,98774.38
2018-12-20T07:43:13.912Z,98771.04
2018-12-20T07:45:43.892Z,98777.16
2018-12-20T07:48:13.732Z,98772.55
2018-12-20T07:50:44.304Z,98765.20
2018-12-20T07:53:14.143Z,98771.98
2018-12-20T07:55:44.048Z,98762.98
2018-12-20T07:58:13.989Z,98764.74
2018-12-20T08:00:43.904Z,98766.05
2018-12-20T08:03:13.713Z,98768.48
2018-12-20T08:05:43.565Z,98774.13
2018-12-20T08:08:13.572Z,98773.46
2018-12-20T08:10:45.076Z,98775.80
2018-12-20T08:13:14.905Z,98776.14
2018-12-20T08:15:44.837Z,98782.53
2018-12-20T08:18:14.843Z,98777.19
2018-12-20T08:20:44.761Z,98779.70
2018-12-20T08:23:14.949Z,98785.62
2018-12-20T08:25:45.832Z,98787.93
2018-12-20T08:28:15.587Z,98786.50
2018-12-20T08:30:45.437Z,98788.63
2018-12-20T08:33:15.873Z,98792.61
2018-12-20T08:35:45.788Z,98800.96
2018-12-20T08:38:15.940Z,98795.28
2018-12-20T08:40:45.833Z,98803.45
2018-12-20T08:43:15.608Z,98798.80
2018-12-20T08:45:45.452Z,98796.80
2018-12-20T08:48:15.280Z,98801.06
2018-12-20T08:50:45.920Z,98801.15
2018-12-20T08:53:15.928Z,98805.05
2018-12-20T08:55:46.267Z,98808.58
2018-12-20T08:58:16.308Z,98809.03
2018-12-20T09:00:47.237Z,98810.36
2018-12-20T09:03:17.124Z,98808.47
2018-12-20T09:05:47.015Z,98811.78
2018-12-20T09:08:16.906Z,98807.33
2018-12-20T09:10:46.740Z,98805.67
2018-12-20T09:13:16.539Z,98805.86
2018-12-20T09:15:46.411Z,98808.44
2018-12-20T09:18:16.272Z,98815.62
2018-12-20T09:20:46.348Z,98806.29
2018-12-20T09:23:16.229Z,98809.50
2018-12-20T09:25:46.208Z,98809.41
2018-12-20T09:28:16.092Z,98814.19
2018-12-20T09:30:45.940Z,98817.82
2018-12-20T09:33:15.991Z,98821.75
2018-12-20T09:35:46.946Z,98832.02
2018-12-20T09:38:17.829Z,98844.23
2018-12-20T09:40:47.670Z,98849.30
2018-12-20T09:43:17.572Z,98852.70
2018-12-20T09:45:47.396Z,98856.41
2018-12-20T09:48:17.336Z,98861.20
2018-12-20T09:50:47.298Z,98862.97
2018-12-20T09:53:18.080Z,98854.25
2018-12-20T09:55:47.872Z,98862.27
2018-12-20T09:58:17.709Z,98858.41
2018-12-20T10:00:47.720Z,98848.63
2018-12-20T10:03:17.551Z,98859.60
2018-12-20T10:05:47.456Z,98855.09
2018-12-20T10:08:17.341Z,98844.95
2018-12-20T10:10:47.118Z,98849.78
2018-12-20T10:13:17.161Z,98844.55
2018-12-20T10:15:47.211Z,98837.95
2018-12-20T10:18:17.160Z,98835.34
2018-12-20T10:20:46.996Z,98826.61
2018-12-20T10:23:16.883Z,98826.13
2018-12-20T10:25:46.732Z,98823.17
2018-12-20T10:28:16.618Z,98819.88
2018-12-20T10:30:46.532Z,98824.58
2018-12-20T10:33:17.731Z,98819.39
2018-12-20T10:35:47.912Z,98816.83
2018-12-20T10:38:17.800Z,98814.58
2018-12-20T10:40:47.740Z,98819.08
2018-12-20T10:43:17.617Z,98815.98
2018-12-20T10:45:47.564Z,98817.09
2018-12-20T10:48:17.536Z,98827.84
2018-12-20T10:50:47.359Z,98808.97
2018-12-20T10:53:17.137Z,98816.02
2018-12-20T10:55:48.097Z,98819.56
2018-12-20T10:58:17.920Z,98814.19
2018-12-20T11:00:53.052Z,98814.05
2018-12-20T11:03:28.359Z,98816.61
2018-12-20T11:06:04.236Z,98807.01
2018-12-20T11:08:36.024Z,98812.95
2018-12-20T11:11:06.776Z,98809.69
2018-12-20T11:13:36.668Z,98816.63
2018-12-20T11:16:06.566Z,98814.34
2018-12-20T11:18:36.416Z,98805.58
2018-12-20T11:21:06.296Z,98807.52
2018-12-20T11:23:36.131Z,98816.16
2018-12-20T11:26:06.021Z,98805.56
2018-12-20T11:28:35.852Z,98805.34
2018-12-20T11:31:05.854Z,98800.59
2018-12-20T11:33:36.228Z,98802.64
2018-12-20T11:36:06.036Z,98800.45
2018-12-20T11:38:35.919Z,98799.97
2018-12-20T11:41:05.881Z,98798.05
2018-12-20T11:43:35.826Z,98800.97
2018-12-20T11:46:05.593Z,98798.63
2018-12-20T11:48:35.541Z,98798.75
2018-12-20T11:51:05.377Z,98796.41
2018-12-20T11:53:35.195Z,98794.80
2018-12-20T11:56:04.995Z,98806.41
2018-12-20T11:58:34.816Z,98802.91
2018-12-20T12:01:04.767Z,98801.59
2018-12-20T12:03:35.059Z,98812.13
2018-12-20T12:06:05.096Z,98805.22
2018-12-20T12:08:35.287Z,98808.62
2018-12-20T12:11:05.064Z,98813.58
2018-12-20T12:13:35.668Z,98801.69
2018-12-20T12:16:05.553Z,98796.72
2018-12-20T12:18:35.542Z,98799.38
2018-12-20T12:21:05.476Z,98790.85
2018-12-20T12:23:35.319Z,98788.38
2018-12-20T12:26:05.180Z,98788.89
2018-12-20T12:28:35.046Z,98789.24
2018-12-20T12:31:04.960Z,98790.92
2018-12-20T12:33:34.885Z,98796.17
2018-12-20T12:36:04.955Z,98788.70
2018-12-20T12:38:34.792Z,98787.29
2018-12-20T12:41:04.611Z,98787.13
2018-12-20T12:43:34.520Z,98775.36
2018-12-20T12:46:04.649Z,98783.70
2018-12-20T12:48:34.645Z,98776.54
2018-12-20T12:51:04.684Z,98767.70
2018-12-20T12:53:34.508Z,98765.77
2018-12-20T12:56:04.629Z,98772.80
2018-12-20T12:58:34.410Z,98768.75
2018-12-20T13:01:04.233Z,98761.50
2018-12-20T13:03:34.072Z,98760.95
2018-12-20T13:06:03.973Z,98759.87
2018-12-20T13:08:33.925Z,98760.95
2018-12-20T13:11:03.876Z,98756.08
2018-12-20T13:13:34.000Z,98758.88
2018-12-20T13:16:04.061Z,98762.02
2018-12-20T13:18:33.948Z,98765.11
2018-12-20T13:21:03.951Z,98769.45
2018-12-20T13:23:33.798Z,98765.31
2018-12-20T13:26:03.713Z,98765.13
2018-12-20T13:28:35.619Z,98762.55
2018-12-20T13:31:05.678Z,98767.00
2018-12-20T13:33:35.520Z,98758.84
2018-12-20T13:36:05.942Z,98760.56
2018-12-20T13:38:35.728Z,98759.20
2018-12-20T13:41:05.724Z,98758.91
2018-12-20T13:43:35.664Z,98764.23
2018-12-20T13:46:05.744Z,98757.27
2018-12-20T13:48:36.012Z,98763.97
2018-12-20T13:51:05.925Z,98762.75
2018-12-20T13:53:36.020Z,98763.97
2018-12-20T13:56:06.613Z,98765.53
2018-12-20T13:58:37.759Z,98771.77
2018-12-20T14:01:07.900Z,98775.07
2018-12-20T14:03:37.763Z,98782.23
2018-12-20T14:06:07.665Z,98781.25
2018-12-20T14:08:38.565Z,98785.76
2018-12-20T14:11:08.942Z,98785.52
2018-12-20T14:13:38.876Z,98784.64
2018-12-20T14:16:08.836Z,98783.55
2018-12-20T14:18:38.707Z,98785.04
2018-12-20T14:21:08.613Z,98790.87
2018-12-20T14:23:38.535Z,98798.72
2018-12-20T14:26:08.363Z,98798.98
2018-12-20T14:28:38.256Z,98815.58
2018-12-20T14:31:08.141Z,98813.78
2018-12-20T14:33:37.964Z,98812.86
2018-12-20T14:36:07.880Z,98824.25
2018-12-20T14:38:37.700Z,98835.97
2018-12-20T14:41:08.770Z,98831.66
2018-12-20T14:43:38.605Z,98840.70
2018-12-20T14:46:08.440Z,98842.31
2018-12-20T14:48:39.556Z,98849.81
2018-12-20T14:51:09.748Z,98844.53
2018-12-20T14:53:39.637Z,98849.53
2018-12-20T14:56:09.480Z,98849.95
2018-12-20T14:58:39.472Z,98853.16
2018-12-20T15:01:09.380Z,98858.73
2018-12-20T15:03:39.155Z,98856.64
2018-12-20T15:06:08.994Z,98855.45
2018-12-20T15:08:38.909Z,98861.34
2018-12-20T15:11:08.761Z,98860.81
2018-12-20T15:13:38.672Z,98858.58
2018-12-20T15:16:08.533Z,98871.89
2018-12-20T15:18:47.441Z,98870.28
2018-12-20T15:21:11.136Z,98879.59
2018-12-20T15:23:40.972Z,98880.20
2018-12-20T15:26:10.903Z,98868.46
2018-12-20T15:28:40.804Z,98870.54
2018-12-20T15:31:11.667Z,98865.42
2018-12-20T15:33:42.128Z,98869.62
2018-12-20T15:36:12.052Z,98877.77
2018-12-20T15:38:41.856Z,98875.30
2018-12-20T15:41:11.968Z,98880.63
2018-12-20T15:43:41.823Z,98880.34
2018-12-20T15:46:11.701Z,98874.59
2018-12-20T15:48:41.553Z,98869.57
2018-12-20T15:51:11.571Z,98872.63
2018-12-20T15:53:42.507Z,98865.32
2018-12-20T15:56:12.354Z,98869.27
2018-12-20T15:58:42.238Z,98872.80
2018-12-20T16:01:12.138Z,98875.61
2018-12-20T16:03:42.025Z,98877.90
2018-12-20T16:06:12.017Z,98876.45
2018-12-20T16:08:42.100Z,98879.33
2018-12-20T16:11:12.056Z,98884.71
2018-12-20T16:13:41.934Z,98889.50
2018-12-20T16:16:12.024Z,98894.36
2018-12-20T16:18:41.863Z,98893.14
2018-12-20T16:21:11.820Z,98894.77
2018-12-20T16:23:42.108Z,98902.45
2018-12-20T16:26:12.480Z,98907.20
2018-12-20T16:28:42.440Z,98908.86
2018-12-20T16:31:13.009Z,98912.65
2018-12-20T16:33:42.923Z,98910.14
2018-12-20T16:36:12.937Z,98902.05
2018-12-20T16:38:42.824Z,98900.75
2018-12-20T16:41:12.776Z,98906.94
2018-12-20T16:43:42.858Z,98912.68
2018-12-20T16:46:12.816Z,98918.17
2018-12-20T16:48:42.720Z,98907.39
2018-12-20T16:51:12.844Z,98916.80
2018-12-20T16:53:42.950Z,98917.48
2018-12-20T16:56:13.160Z,98922.05
2018-12-20T16:58:43.008Z,98920.24
2018-12-20T17:01:14.816Z,98924.81
2018-12-20T17:03:44.918Z,98938.22
2018-12-20T17:06:16.063Z,98940.22
2018-12-20T17:08:48.425Z,98944.33
2018-12-20T17:11:17.863Z,98956.56
2018-12-20T17:13:47.891Z,98947.75
2018-12-20T17:16:17.725Z,98941.58
2018-12-20T17:18:47.620Z,98939.41
2018-12-20T17:21:17.588Z,98945.64
2018-12-20T17:23:47.460Z,98943.19
2018-12-20T17:26:17.968Z,98946.80
2018-12-20T17:28:47.784Z,98949.14
2018-12-20T17:31:17.621Z,98942.57
2018-12-20T17:33:47.536Z,98943.88
2018-12-20T17:36:17.413Z,98949.66
2018-12-20T17:38:48.363Z,98954.84
2018-12-20T17:41:18.822Z,98948.38
2018-12-20T17:43:48.602Z,98949.05
2018-12-20T17:46:18.518Z,98956.02
2018-12-20T17:48:48.344Z,98948.42
2018-12-20T17:51:18.265Z,98947.05
2018-12-20T17:53:48.369Z,98958.69
2018-12-20T17:56:18.332Z,98960.05
2018-12-20T17:58:48.101Z,98954.86
2018-12-20T18:01:17.933Z,98958.94
2018-12-20T18:03:47.958Z,98959.45
2018-12-20T18:06:17.832Z,98960.29
2018-12-20T18:08:47.615Z,98966.77
2018-12-20T18:11:17.500Z,98957.27
2018-12-20T18:13:47.444Z,98961.72
2018-12-20T18:16:17.416Z,98959.47
2018-12-20T18:18:47.324Z,98956.20
2018-12-20T18:21:17.228Z,98961.17
2018-12-20T18:23:47.157Z,98962.77
2018-12-20T18:26:17.087Z,98972.39
2018-12-20T18:28:47.474Z,98968.91
2018-12-20T18:31:17.429Z,98971.95
2018-12-20T18:33:47.345Z,98964.54
2018-12-20T18:36:17.540Z,98957.83
2018-12-20T18:38:47.375Z,98963.54
2018-12-20T18:41:17.197Z,98958.30
2018-12-20T18:43:47.084Z,98957.05
2018-12-20T18:46:17.739Z,98959.38
2018-12-20T18:48:47.633Z,98963.60
2018-12-20T18:51:17.421Z,98970.52
2018-12-20T18:53:47.841Z,98968.59
2018-12-20T18:56:17.711Z,98965.68
2018-12-20T18:58:47.576Z,98964.41
2018-12-20T19:01:17.364Z,98965.09
2018-12-20T19:03:47.246Z,98964.20
2018-12-20T19:06:17.195Z,98968.55
2018-12-20T19:08:47.034Z,98981.88
2018-12-20T19:11:16.885Z,98983.77
2018-12-20T19:13:46.780Z,98984.97
2018-12-20T19:16:16.666Z,98982.69
2018-12-20T19:18:46.505Z,98991.74
2018-12-20T19:21:16.394Z,98990.20
2018-12-20T19:23:46.243Z,98994.70
2018-12-20T19:26:16.072Z,98988.03
2018-12-20T19:28:46.079Z,98997.52
2018-12-20T19:31:15.998Z,98995.55
2018-12-20T19:33:46.511Z,99004.01
2018-12-20T19:36:16.454Z,98999.66
2018-12-20T19:38:46.456Z,98994.86
2018-12-20T19:41:16.384Z,98992.31
2018-12-20T19:43:46.237Z,98986.59
2018-12-20T19:46:16.134Z,98988.92
2018-12-20T19:48:46.108Z,98987.61
2018-12-20T19:51:15.956Z,98981.96
2018-12-20T19:53:46.741Z,98968.06
2018-12-20T19:56:16.697Z,98973.58
2018-12-20T19:58:46.576Z,98980.44
2018-12-20T20:01:16.420Z,98979.66
2018-12-20T20:03:46.316Z,98982.38
2018-12-20T20:06:16.197Z,98985.52
2018-12-20T20:08:46.685Z,98994.13
2018-12-20T20:11:16.798Z,98993.95
2018-12-20T20:13:46.678Z,98998.61
2018-12-20T20:16:16.528Z,99004.44
2018-12-20T20:18:46.528Z,99007.70
2018-12-20T20:21:16.316Z,99009.70
2018-12-20T20:23:46.120Z,99024.90
2018-12-20T20:26:16.031Z,99019.64
2018-12-20T20:28:45.882Z,99016.98
2018-12-20T20:31:15.720Z,99013.00
2018-12-20T20:33:45.656Z,99019.81
2018-12-20T20:36:16.512Z,99008.80
2018-12-20T20:38:46.933Z,99010.98
2018-12-20T20:41:16.751Z,99008.67
2018-12-20T20:43:46.823Z,98996.88
2018-12-20T20:46:16.750Z,99001.23
2018-12-20T20:48:47.400Z,99003.86
2018-12-20T20:51:17.306Z,99008.73
2018-12-20T20:53:47.353Z,99008.14
2018-12-20T20:56:17.202Z,99002.05
2018-12-20T20:58:47.023Z,99007.14
2018-12-20T21:01:16.885Z,99004.67
2018-12-20T21:03:46.735Z,99003.05
2018-12-20T21:06:16.647Z,99002.86
2018-12-20T21:08:46.473Z,99008.36
2018-12-20T21:11:16.396Z,99020.38
2018-12-20T21:13:46.304Z,99026.27
2018-12-20T21:16:16.323Z,99020.56
2018-12-20T21:18:46.261Z,99016.39
2018-12-20T21:21:16.458Z,99008.61
2018-12-20T21:23:46.512Z,99003.26
2018-12-20T21:26:16.692Z,99005.72
2018-12-20T21:28:46.593Z,99010.33
2018-12-20T21:31:16.765Z,99018.03
2018-12-20T21:33:48.248Z,99024.20
2018-12-20T21:36:18.176Z,99026.00
2018-12-20T21:38:48.239Z,99026.30
2018-12-20T21:41:18.077Z,99034.91
2018-12-20T21:43:47.966Z,99044.38
2018-12-20T21:46:17.823Z,99046.56
2018-12-20T21:48:47.616Z,99047.77
2018-12-20T21:51:17.489Z,99047.34
2018-12-20T21:53:54.851Z,99041.35
2018-12-20T21:56:19.945Z,99047.40
2018-12-20T21:58:49.815Z,99044.55
2018-12-20T22:01:19.832Z,99041.45
2018-12-20T22:03:49.709Z,99034.59
2018-12-20T22:06:19.984Z,99046.88
2018-12-20T22:08:49.989Z,99043.14
2018-12-20T22:11:19.872Z,99035.08
2018-12-20T22:13:49.704Z,99039.22
2018-12-20T22:16:19.652Z,99042.89
2018-12-20T22:18:49.537Z,99040.24
2018-12-20T22:21:20.359Z,99035.96
2018-12-20T22:23:50.908Z,99045.27
2018-12-20T22:26:20.757Z,99040.92
2018-12-20T22:28:50.637Z,99042.20
2018-12-20T22:31:20.545Z,99040.85
2018-12-20T22:33:50.435Z,99045.99
2018-12-20T22:36:20.252Z,99039.05
2018-12-20T22:38:50.179Z,99037.52
2018-12-20T22:41:21.108Z,99038.30
2018-12-20T22:43:50.941Z,99044.16
2018-12-20T22:46:20.913Z,99045.69
2018-12-20T22:48:50.897Z,99046.09
2018-12-20T22:51:20.861Z,99043.44
2018-12-20T22:53:50.700Z,99036.03
2018-12-20T22:56:20.709Z,99047.80
2018-12-20T22:58:50.659Z,99042.55
2018-12-20T23:01:20.638Z,99037.61
2018-12-20T23:03:50.619Z,99038.11
2018-12-20T23:06:20.769Z,99034.73
2018-12-20T23:08:50.937Z,99038.39
2018-12-20T23:11:21.619Z,99042.83
2018-12-20T23:13:51.516Z,99044.39
2018-12-20T23:16:21.366Z,99048.09
2018-12-20T23:18:51.332Z,99048.80
2018-12-20T23:21:21.187Z,99045.01
2018-12-20T23:23:50.985Z,99046.73
2018-12-20T23:26:20.937Z,99044.50
2018-12-20T23:28:50.868Z,99043.47
2018-12-20T23:31:20.747Z,99037.12
2018-12-20T23:33:50.572Z,99028.49
2018-12-20T23:36:20.678Z,99027.61
2018-12-20T23:38:50.528Z,99014.92
2018-12-20T23:41:20.406Z,99014.30
2018-12-20T23:43:50.437Z,99003.02
2018-12-20T23:46:20.955Z,98993.83
2018-12-20T23:48:50.735Z,98994.27
2018-12-20T23:51:20.712Z,98997.77
2018-12-20T23:53:50.739Z,98995.33
2018-12-20T23:56:20.613Z,98996.66
2018-12-20T23:58:50.430Z,99002.92
